Time;durP1;ratioP1;P1;durP2;ratioP2;P2;SDS_P1;SDS_P2;PMS_P1;PMS_P2;Temp;Humidity;BMP_temperature;BMP_pressure;BME280_temperature;BME280_humidity;BME280_pressure;Samples;Min_cycle;Max_cycle;Signal;HPM_P1;HPM_P2
2021/07/27 00:02:22;;;;;;;;;;;;;;;26.14;53.92;100857.13;5088099;28;1989;-65
2021/07/27 00:04:49;;;;;;;;;;;;;;;26.07;54.32;100851.44;5087821;28;1307;-64
2021/07/27 00:07:16;;;;;;;;;;;;;;;26.11;54.12;100860.03;5088158;28;1143;-65
2021/07/27 00:09:43;;;;;;;;;;;;;;;26.15;53.85;100857.94;5087545;28;1238;-64
2021/07/27 00:12:09;;;;;;;;;;;;;;;26.05;54.41;100852.56;5086879;28;1086;-64
2021/07/27 00:14:36;;;;;;;;;;;;;;;26.12;54.30;100848.38;5087468;28;1297;-64
2021/07/27 00:17:03;;;;;;;;;;;;;;;26.10;54.20;100847.66;5087683;28;1134;-64
2021/07/27 00:19:30;;;;;;;;;;;;;;;26.07;54.18;100843.44;5069834;28;1208;-65
2021/07/27 00:21:57;;;;;;;;;;;;;;;26.06;53.90;100844.41;5088402;28;1018;-64
2021/07/27 00:24:26;;;;;;;;;;;;;;;26.08;54.02;100841.63;5087845;28;1985;-65
2021/07/27 00:26:54;;;;;;;;;;;;;;;26.03;53.92;100847.34;5088689;28;1088;-64
2021/07/27 00:29:22;;;;;;;;;;;;;;;25.99;54.13;100839.75;5088040;28;1194;-64
2021/07/27 00:31:49;;;;;;;;;;;;;;;26.00;54.38;100844.09;5087608;28;1184;-64
2021/07/27 00:34:17;;;;;;;;;;;;;;;25.96;54.04;100840.00;5069611;28;1294;-65
2021/07/27 00:36:44;;;;;;;;;;;;;;;26.04;54.12;100837.53;5087825;28;1041;-64
2021/07/27 00:39:11;;;;;;;;;;;;;;;25.94;54.20;100844.63;5087813;28;1291;-64
2021/07/27 00:41:38;;;;;;;;;;;;;;;25.91;54.33;100837.72;5087449;28;1532;-64
2021/07/27 00:44:05;;;;;;;;;;;;;;;25.98;54.23;100836.22;5069267;28;1980;-64
2021/07/27 00:46:32;;;;;;;;;;;;;;;25.92;54.03;100838.56;5069494;28;1178;-64
2021/07/27 00:49:00;;;;;;;;;;;;;;;25.96;54.09;100837.34;5087654;28;1263;-64
2021/07/27 00:51:28;;;;;;;;;;;;;;;25.92;53.97;100846.56;5091823;28;1089;-64
2021/07/27 00:53:55;;;;;;;;;;;;;;;25.96;54.13;100840.81;5091408;28;1217;-63
2021/07/27 00:56:22;;;;;;;;;;;;;;;25.94;54.03;100836.59;5091824;28;1146;-64
2021/07/27 00:58:49;;;;;;;;;;;;;;;25.88;53.72;100829.13;5091537;28;1299;-64
2021/07/27 01:01:16;;;;;;;;;;;;;;;25.87;54.35;100840.81;5073126;28;894;-65
2021/07/27 01:03:42;;;;;;;;;;;;;;;25.85;54.28;100830.25;5072985;28;2232;-63
2021/07/27 01:06:09;;;;;;;;;;;;;;;25.89;53.97;100830.81;5091027;28;1182;-65
2021/07/27 01:08:37;;;;;;;;;;;;;;;25.83;54.15;100831.34;5091333;28;1208;-64
2021/07/27 01:11:04;;;;;;;;;;;;;;;25.83;54.40;100823.34;5091087;28;1112;-64
2021/07/27 01:13:31;;;;;;;;;;;;;;;25.78;54.26;100822.88;5072572;28;1291;-64
2021/07/27 01:16:03;;;;;;;;;;;;;;;25.75;54.59;100823.13;5091313;28;1132;-65
2021/07/27 01:18:35;;;;;;;;;;;;;;;25.77;54.17;100826.53;5091026;28;1362;-64
2021/07/27 01:40:03;;;;;;;;;;;;;;;25.71;54.07;100805.72;5090324;28;1220;-63
2021/07/27 01:42:34;;;;;;;;;;;;;;;25.71;54.41;100805.72;5068836;28;1275;-63
2021/07/27 01:45:05;;;;;;;;;;;;;;;25.76;54.28;100808.81;5070386;28;2024;-63
2021/07/27 01:47:32;;;;;;;;;;;;;;;25.78;53.86;100806.88;5070631;28;1084;-63
2021/07/27 01:49:58;;;;;;;;;;;;;;;25.74;54.18;100810.78;5070356;28;1236;-63
2021/07/27 01:52:25;;;;;;;;;;;;;;;25.67;54.31;100804.28;5068823;28;1160;-64
2021/07/27 01:54:54;;;;;;;;;;;;;;;25.70;53.86;100814.69;5069935;28;1313;-63
2021/07/27 01:57:22;;;;;;;;;;;;;;;25.72;53.85;100799.38;5070060;28;774;-64
2021/07/27 02:00:05;;;;;;;;;;;;;;;25.69;54.33;100802.31;5069841;28;1287;-64
2021/07/27 02:02:32;;;;;;;;;;;;;;;25.72;53.75;100794.06;5069273;28;743;-63
2021/07/27 02:04:59;;;;;;;;;;;;;;;25.66;53.96;100787.41;5069794;28;1901;-63
2021/07/27 02:07:26;;;;;;;;;;;;;;;25.78;53.76;100796.19;5068300;28;733;-64
2021/07/27 02:10:00;;;;;;;;;;;;;;;25.71;54.27;100795.03;5070038;28;1238;-63
2021/07/27 02:12:35;;;;;;;;;;;;;;;25.72;53.90;100791.38;5070073;28;864;-63
2021/07/27 02:15:11;;;;;;;;;;;;;;;25.61;54.33;100792.31;5069900;28;1268;-63
2021/07/27 02:17:38;;;;;;;;;;;;;;;25.71;53.78;100793.22;5070035;28;797;-64
2021/07/27 02:20:05;;;;;;;;;;;;;;;25.66;54.15;100790.09;5071644;28;1322;-63
2021/07/27 02:22:33;;;;;;;;;;;;;;;25.61;54.06;100786.97;5069380;28;856;-64
2021/07/27 02:25:00;;;;;;;;;;;;;;;25.74;54.03;100789.44;5068356;28;1884;-64
2021/07/27 02:27:27;;;;;;;;;;;;;;;25.63;54.21;100782.34;5069724;28;750;-64
2021/07/27 02:29:54;;;;;;;;;;;;;;;25.66;54.21;100783.91;5067873;28;1228;-64
2021/07/27 02:32:21;;;;;;;;;;;;;;;25.59;53.94;100788.09;5069269;28;1087;-64
2021/07/27 02:34:48;;;;;;;;;;;;;;;25.60;54.34;100781.75;5069345;28;1192;-64
2021/07/27 02:37:15;;;;;;;;;;;;;;;25.62;53.98;100783.34;5069788;28;1168;-64
2021/07/27 02:39:42;;;;;;;;;;;;;;;25.57;54.08;100788.22;5067889;28;1247;-63
2021/07/27 02:42:08;;;;;;;;;;;;;;;25.48;54.31;100783.63;5067913;28;1670;-62
2021/07/27 02:44:35;;;;;;;;;;;;;;;25.58;54.45;100789.06;5069575;28;1910;-64
2021/07/27 02:47:05;;;;;;;;;;;;;;;25.54;54.56;100777.78;5067932;28;1292;-64
2021/07/27 02:49:31;;;;;;;;;;;;;;;25.52;54.35;100780.59;5069083;28;1302;-63
2021/07/27 02:51:58;;;;;;;;;;;;;;;25.52;54.67;100783.28;5069450;28;1178;-63
2021/07/27 02:54:25;;;;;;;;;;;;;;;25.46;54.76;100777.56;5068964;28;1319;-67
2021/07/27 02:56:51;;;;;;;;;;;;;;;25.47;54.61;100788.09;5069300;28;1138;-63
2021/07/27 02:59:18;;;;;;;;;;;;;;;25.51;54.79;100786.91;5068982;28;1179;-64
2021/07/27 03:01:45;;;;;;;;;;;;;;;25.55;54.36;100784.84;5069181;28;1085;-64
2021/07/27 03:04:12;;;;;;;;;;;;;;;25.43;54.80;100784.03;5068756;28;1902;-64
2021/07/27 03:06:39;;;;;;;;;;;;;;;25.50;54.57;100781.72;5068953;28;1070;-64
2021/07/27 03:09:16;;;;;;;;;;;;;;;25.46;54.87;100788.25;5068548;28;1282;-64
2021/07/27 03:11:42;;;;;;;;;;;;;;;25.48;54.58;100778.28;5069160;28;1030;-63
2021/07/27 03:14:09;;;;;;;;;;;;;;;25.39;54.93;100769.25;5068785;28;1240;-63
2021/07/27 03:16:36;;;;;;;;;;;;;;;25.41;55.16;100777.13;5068960;28;895;-64
2021/07/27 03:19:03;;;;;;;;;;;;;;;25.37;55.37;100776.53;5068564;28;1239;-64
2021/07/27 03:21:30;;;;;;;;;;;;;;;25.41;55.31;100769.13;5066016;28;1068;-64
2021/07/27 03:23:56;;;;;;;;;;;;;;;25.41;54.90;100766.47;5068244;28;1902;-63
2021/07/27 03:26:24;;;;;;;;;;;;;;;25.44;54.81;100767.03;5068889;28;1079;-64
2021/07/27 03:28:51;;;;;;;;;;;;;;;25.45;54.87;100773.22;5068681;28;1181;-64
2021/07/27 03:31:17;;;;;;;;;;;;;;;25.45;55.17;100766.06;5067389;28;1293;-64
2021/07/27 03:33:44;;;;;;;;;;;;;;;25.41;54.84;100769.13;5086565;28;1278;-64
2021/07/27 03:36:11;;;;;;;;;;;;;;;25.41;54.82;100759.28;5088219;28;1824;-63
2021/07/27 03:38:38;;;;;;;;;;;;;;;25.42;55.15;100760.13;5079110;28;1208;-63
2021/07/27 03:41:05;;;;;;;;;;;;;;;25.32;54.95;100767.25;5066931;28;1039;-63
2021/07/27 03:43:32;;;;;;;;;;;;;;;25.27;55.47;100767.63;5087476;28;1910;-63
2021/07/27 03:45:58;;;;;;;;;;;;;;;25.25;55.13;100772.25;5088394;28;1071;-63
2021/07/27 03:48:25;;;;;;;;;;;;;;;25.36;54.79;100769.50;5087759;28;1311;-64
2021/07/27 03:50:52;;;;;;;;;;;;;;;25.29;54.98;100770.16;5088145;28;1577;-64
2021/07/27 03:53:21;;;;;;;;;;;;;;;25.25;55.48;100771.38;5088010;28;1084;-65
2021/07/27 03:55:47;;;;;;;;;;;;;;;25.29;55.04;100776.31;5087953;28;1189;-64
2021/07/27 03:58:14;;;;;;;;;;;;;;;25.29;55.00;100771.00;5087979;28;1027;-65
2021/07/27 04:00:41;;;;;;;;;;;;;;;25.26;55.03;100773.91;5088009;28;1228;-64
2021/07/27 04:03:08;;;;;;;;;;;;;;;25.26;55.06;100773.91;5070045;28;773;-64
2021/07/27 04:05:35;;;;;;;;;;;;;;;25.35;55.15;100774.97;5087894;28;1906;-64
2021/07/27 04:08:01;;;;;;;;;;;;;;;25.30;55.25;100782.50;5088335;28;786;-64
2021/07/27 04:10:28;;;;;;;;;;;;;;;25.30;55.32;100786.03;5069840;28;1335;-64
2021/07/27 04:12:54;;;;;;;;;;;;;;;25.25;55.28;100776.72;5088156;28;1067;-64
2021/07/27 04:15:21;;;;;;;;;;;;;;;25.26;55.27;100781.09;5088241;28;1164;-64
2021/07/27 04:17:48;;;;;;;;;;;;;;;25.22;55.07;100777.81;5088035;28;1134;-64
2021/07/27 04:20:15;;;;;;;;;;;;;;;25.14;55.30;100777.59;5088316;28;1236;-64
2021/07/27 04:22:41;;;;;;;;;;;;;;;25.18;55.44;100784.38;5087048;28;1075;-64
2021/07/27 04:25:08;;;;;;;;;;;;;;;25.24;54.98;100785.69;5089813;28;1983;-63
2021/07/27 04:27:35;;;;;;;;;;;;;;;25.26;54.90;100779.25;5092194;28;826;-63
2021/07/27 04:30:02;;;;;;;;;;;;;;;25.23;55.02;100784.00;5092071;28;1208;-63
2021/07/27 04:32:29;;;;;;;;;;;;;;;25.24;54.95;100780.34;5092245;28;766;-64
2021/07/27 04:34:56;;;;;;;;;;;;;;;25.26;54.90;100784.56;5091993;28;1368;-63
2021/07/27 04:37:23;;;;;;;;;;;;;;;25.25;54.91;100787.38;5073416;28;1143;-63
2021/07/27 04:39:53;;;;;;;;;;;;;;;25.22;55.50;100790.31;5092023;28;1314;-63
2021/07/27 04:42:20;;;;;;;;;;;;;;;25.28;54.97;100787.97;5091925;28;1322;-64
2021/07/27 04:44:46;;;;;;;;;;;;;;;25.20;55.38;100785.09;5091690;28;2001;-64
2021/07/27 04:47:13;;;;;;;;;;;;;;;25.22;55.16;100783.16;5092072;28;878;-63
2021/07/27 04:49:43;;;;;;;;;;;;;;;25.20;55.28;100785.09;5091978;28;1216;-62
2021/07/27 04:52:12;;;;;;;;;;;;;;;25.16;55.39;100786.34;5073205;28;1148;-62
2021/07/27 04:54:50;;;;;;;;;;;;;;;25.16;55.01;100786.34;5091364;28;1290;-63
2021/07/27 04:57:18;;;;;;;;;;;;;;;25.16;55.00;100798.81;5091997;28;1138;-62
2021/07/27 04:59:44;;;;;;;;;;;;;;;25.20;55.08;100793.09;5091505;28;2123;-62
2021/07/27 05:02:11;;;;;;;;;;;;;;;25.08;55.26;100791.44;5091078;28;1363;-61
2021/07/27 05:04:38;;;;;;;;;;;;;;;25.08;54.72;100783.44;5091346;28;1950;-61
2021/07/27 05:07:05;;;;;;;;;;;;;;;25.18;54.68;100789.72;5090954;28;1532;-61
2021/07/27 05:09:32;;;;;;;;;;;;;;;25.17;54.46;100790.66;5091484;28;1243;-61
2021/07/27 05:11:58;;;;;;;;;;;;;;;25.22;54.44;100787.63;5091308;28;1150;-61
2021/07/27 05:14:25;;;;;;;;;;;;;;;25.28;53.96;100793.31;5090570;28;1278;-62
2021/07/27 05:16:53;;;;;;;;;;;;;;;25.28;54.16;100798.66;5090111;28;1038;-63
2021/07/27 05:19:20;;;;;;;;;;;;;;;25.27;53.61;100804.09;5090717;28;1307;-63
2021/07/27 05:21:48;;;;;;;;;;;;;;;25.20;53.69;100800.25;5090847;28;1067;-62
2021/07/27 05:24:15;;;;;;;;;;;;;;;25.21;53.71;100802.78;5090190;28;1906;-62
2021/07/27 05:26:42;;;;;;;;;;;;;;;25.22;53.89;100803.63;5091464;28;1141;-62
2021/07/27 05:29:09;;;;;;;;;;;;;;;25.28;53.64;100805.78;5090792;28;1284;-62
2021/07/27 05:31:37;;;;;;;;;;;;;;;25.15;53.73;100808.63;5090204;28;1200;-61
2021/07/27 05:34:03;;;;;;;;;;;;;;;25.25;53.36;100809.56;5089916;28;1385;-62
2021/07/27 05:36:30;;;;;;;;;;;;;;;25.21;53.88;100813.44;5090005;28;1244;-63
2021/07/27 05:38:57;;;;;;;;;;;;;;;25.15;53.91;100813.97;5059661;28;1871;-63
2021/07/27 05:41:23;;;;;;;;;;;;;;;25.29;53.20;100813.66;5061533;28;1395;-63
2021/07/27 05:43:50;;;;;;;;;;;;;;;25.34;53.26;100813.28;5079822;28;1917;-63
2021/07/27 05:46:17;;;;;;;;;;;;;;;25.29;52.86;100807.50;5078244;28;1181;-64
2021/07/27 05:48:46;;;;;;;;;;;;;;;25.43;52.66;100812.50;5079692;28;1353;-63
2021/07/27 05:51:14;;;;;;;;;;;;;;;25.39;52.73;100811.91;5079698;28;1272;-63
2021/07/27 05:53:42;;;;;;;;;;;;;;;25.39;52.38;100805.72;5078230;28;1281;-62
2021/07/27 05:56:08;;;;;;;;;;;;;;;25.37;52.65;100815.69;5089263;28;1209;-63
2021/07/27 05:58:35;;;;;;;;;;;;;;;25.33;52.74;100812.41;5089423;28;1382;-63
2021/07/27 06:01:02;;;;;;;;;;;;;;;25.37;52.32;100808.53;5088993;28;1193;-63
2021/07/27 06:03:28;;;;;;;;;;;;;;;25.45;51.75;100814.06;5093797;28;1292;-64
2021/07/27 06:05:55;;;;;;;;;;;;;;;25.49;51.61;100812.88;5079886;28;1918;-63
2021/07/27 06:08:22;;;;;;;;;;;;;;;25.38;51.48;100815.53;5078132;28;1457;-63
2021/07/27 06:10:49;;;;;;;;;;;;;;;25.50;50.93;100813.72;5088837;28;1386;-63
2021/07/27 06:13:15;;;;;;;;;;;;;;;25.45;51.01;100816.72;5088710;28;1343;-63
2021/07/27 06:15:42;;;;;;;;;;;;;;;25.57;50.52;100819.38;5088745;28;1236;-62
2021/07/27 06:18:09;;;;;;;;;;;;;;;25.49;50.44;100823.53;5093023;28;1204;-64
2021/07/27 06:20:35;;;;;;;;;;;;;;;25.57;50.37;100814.88;5044551;28;1469;-65
2021/07/27 06:23:02;;;;;;;;;;;;;;;25.57;50.22;100817.53;5077962;28;1209;-64
2021/07/27 06:25:29;;;;;;;;;;;;;;;25.59;50.05;100812.09;5077763;28;1988;-63
2021/07/27 06:27:56;;;;;;;;;;;;;;;25.53;50.58;100816.94;5079763;28;1276;-63
2021/07/27 06:30:22;;;;;;;;;;;;;;;25.52;50.60;100817.09;5077499;28;1341;-62
2021/07/27 06:32:49;;;;;;;;;;;;;;;25.51;50.33;100818.06;5088430;28;1236;-66
2021/07/27 06:35:16;;;;;;;;;;;;;;;25.54;50.11;100826.66;5076746;28;1312;-64
2021/07/27 06:37:42;;;;;;;;;;;;;;;25.60;49.98;100817.28;5088652;28;1245;-64
2021/07/27 06:40:10;;;;;;;;;;;;;;;25.53;49.88;100806.28;5088475;28;1381;-61
2021/07/27 06:42:36;;;;;;;;;;;;;;;25.63;49.60;100800.16;5088485;28;1357;-62
2021/07/27 06:45:03;;;;;;;;;;;;;;;25.64;49.37;100805.38;5088105;28;1995;-61
2021/07/27 06:47:30;;;;;;;;;;;;;;;25.63;49.64;100806.34;5099407;27;1134;-61
2021/07/27 06:49:57;;;;;;;;;;;;;;;25.62;49.04;100815.34;5088333;28;1243;-62
2021/07/27 06:52:23;;;;;;;;;;;;;;;25.61;48.88;100813.66;5090254;28;1126;-61
2021/07/27 06:54:50;;;;;;;;;;;;;;;25.73;48.45;100811.75;5060348;28;1411;-62
2021/07/27 06:57:17;;;;;;;;;;;;;;;25.72;48.67;100818.06;5072456;28;1221;-63
2021/07/27 06:59:43;;;;;;;;;;;;;;;25.79;48.19;100819.25;5094177;28;1283;-61
2021/07/27 07:02:10;;;;;;;;;;;;;;;25.72;48.49;100818.06;5098797;28;1255;-62
2021/07/27 07:04:37;;;;;;;;;;;;;;;25.82;48.29;100817.16;5084455;28;1917;-62
2021/07/27 07:07:07;;;;;;;;;;;;;;;25.69;47.81;100807.66;5089336;28;1319;-62
2021/07/27 07:09:34;;;;;;;;;;;;;;;25.80;48.00;100823.59;5088965;28;1279;-62
2021/07/27 07:12:01;;;;;;;;;;;;;;;25.83;47.52;100826.03;5085671;28;1270;-61
2021/07/27 07:14:27;;;;;;;;;;;;;;;25.88;47.31;100829.13;5088225;28;1373;-64
2021/07/27 07:16:54;;;;;;;;;;;;;;;25.85;46.96;100832.91;5088086;28;1236;-62
2021/07/27 07:19:21;;;;;;;;;;;;;;;25.82;46.60;100841.19;5088140;28;1323;-62
2021/07/27 07:21:48;;;;;;;;;;;;;;;25.89;46.49;100833.50;5087260;28;1237;-62
2021/07/27 07:24:15;;;;;;;;;;;;;;;25.92;46.74;100831.41;5062063;28;1909;-62
2021/07/27 07:26:41;;;;;;;;;;;;;;;25.93;46.00;100829.59;5082312;28;1539;-61
2021/07/27 07:29:08;;;;;;;;;;;;;;;25.98;46.03;100838.91;5088013;28;1248;-61
2021/07/27 07:31:35;;;;;;;;;;;;;;;26.00;46.04;100830.75;5087651;28;1224;-60
2021/07/27 07:34:02;;;;;;;;;;;;;;;26.02;46.53;100831.47;5087398;28;1367;-59
2021/07/27 07:36:28;;;;;;;;;;;;;;;26.05;45.71;100833.88;5087138;28;1220;-60
2021/07/27 07:38:55;;;;;;;;;;;;;;;26.00;45.40;100831.59;5087670;28;1283;-60
2021/07/27 07:41:24;;;;;;;;;;;;;;;26.03;46.07;100835.81;5081705;28;1315;-61
2021/07/27 07:43:51;;;;;;;;;;;;;;;26.14;46.47;100840.25;5068924;28;1327;-63
2021/07/27 07:46:18;;;;;;;;;;;;;;;26.16;45.58;100833.81;5063548;28;1965;-63
2021/07/27 07:48:45;;;;;;;;;;;;;;;26.17;46.07;100830.19;5087241;28;1365;-62
2021/07/27 07:51:11;;;;;;;;;;;;;;;26.17;45.62;100832.00;5087015;28;1244;-61
2021/07/27 07:53:38;;;;;;;;;;;;;;;26.20;45.44;100834.41;5088975;28;1279;-60
2021/07/27 07:56:09;;;;;;;;;;;;;;;26.20;46.39;100840.59;5084424;28;1272;-62
2021/07/27 07:58:36;;;;;;;;;;;;;;;26.27;46.31;100835.53;5085778;28;1784;-62
2021/07/27 08:01:07;;;;;;;;;;;;;;;26.27;46.24;100831.06;5085983;28;1244;-63
2021/07/27 08:03:34;;;;;;;;;;;;;;;26.28;45.69;100838.09;5084280;28;1358;-65
2021/07/27 08:06:01;;;;;;;;;;;;;;;26.26;45.84;100834.72;5087543;28;1933;-63
2021/07/27 08:08:28;;;;;;;;;;;;;;;26.29;45.77;100839.78;5086331;28;1292;-62
2021/07/27 08:10:55;;;;;;;;;;;;;;;26.27;46.17;100838.22;5084966;28;1039;-63
2021/07/27 08:13:21;;;;;;;;;;;;;;;26.28;46.17;100843.44;5085604;28;1141;-65
2021/07/27 08:15:49;;;;;;;;;;;;;;;26.29;46.40;100839.78;5086590;28;1594;-62
2021/07/27 08:18:18;;;;;;;;;;;;;;;26.29;46.28;100847.81;5075291;28;1204;-64
2021/07/27 08:20:45;;;;;;;;;;;;;;;26.30;46.50;100830.78;5085928;28;1256;-63
2021/07/27 08:23:12;;;;;;;;;;;;;;;26.34;45.93;100837.56;5085816;28;1333;-62
2021/07/27 08:25:38;;;;;;;;;;;;;;;26.33;46.41;100832.34;5085841;28;1910;-64
2021/07/27 08:28:05;;;;;;;;;;;;;;;26.34;46.33;100832.22;5083131;28;1474;-63
2021/07/27 08:30:32;;;;;;;;;;;;;;;26.44;45.90;100837.59;5085377;28;1303;-64
2021/07/27 08:32:58;;;;;;;;;;;;;;;26.45;45.56;100829.44;5086985;28;1206;-64
2021/07/27 08:35:25;;;;;;;;;;;;;;;26.46;45.62;100830.28;5087449;28;1493;-63
2021/07/27 08:37:52;;;;;;;;;;;;;;;26.48;45.56;100828.31;5075042;28;1222;-63
2021/07/27 08:40:19;;;;;;;;;;;;;;;26.53;45.12;100832.28;5085811;28;1395;-64
2021/07/27 08:42:47;;;;;;;;;;;;;;;26.53;45.49;100826.09;5084440;28;1700;-63
2021/07/27 08:45:14;;;;;;;;;;;;;;;26.54;45.97;100825.09;5085764;28;1906;-65
2021/07/27 08:47:43;;;;;;;;;;;;;;;26.54;46.06;100827.78;5087440;28;1216;-63
2021/07/27 08:50:11;;;;;;;;;;;;;;;26.61;45.81;100821.78;5088054;28;1334;-64
2021/07/27 08:52:37;;;;;;;;;;;;;;;26.59;45.58;100828.22;5087350;28;869;-64
2021/07/27 08:55:05;;;;;;;;;;;;;;;26.57;45.69;100823.00;5087608;28;1223;-65
2021/07/27 08:57:32;;;;;;;;;;;;;;;26.57;45.60;100820.34;5069672;28;785;-66
2021/07/27 08:59:59;;;;;;;;;;;;;;;26.57;45.51;100822.16;5087389;28;1319;-65
2021/07/27 09:02:27;;;;;;;;;;;;;;;26.56;45.46;100816.00;5087931;28;822;-66
2021/07/27 09:05:10;;;;;;;;;;;;;;;26.58;45.25;100821.19;5069830;28;1906;-65
2021/07/27 09:07:38;;;;;;;;;;;;;;;26.62;44.95;100819.94;5087889;28;798;-66
2021/07/27 09:10:11;;;;;;;;;;;;;;;26.67;44.25;100823.03;5088321;28;1304;-64
2021/07/27 09:12:50;;;;;;;;;;;;;;;26.67;44.88;100816.84;5073408;28;1802;-65
2021/07/27 09:15:18;;;;;;;;;;;;;;;26.61;45.22;100820.91;5073378;28;1283;-65
2021/07/27 09:18:01;;;;;;;;;;;;;;;26.66;44.32;100823.19;5073552;28;1150;-66
2021/07/27 09:20:34;;;;;;;;;;;;;;;26.67;44.61;100816.84;5091481;28;1291;-65
2021/07/27 09:23:04;;;;;;;;;;;;;;;26.69;44.17;100817.56;5091341;28;1494;-64
2021/07/27 09:25:33;;;;;;;;;;;;;;;26.71;44.09;100816.44;5091846;28;1906;-64
2021/07/27 09:28:08;;;;;;;;;;;;;;;26.75;43.83;100814.34;5091590;28;1008;-66
2021/07/27 09:30:37;;;;;;;;;;;;;;;26.74;43.42;100812.66;5091389;28;1310;-67
2021/07/27 09:33:05;;;;;;;;;;;;;;;26.71;43.80;100807.59;5091478;28;778;-66
2021/07/27 09:35:32;;;;;;;;;;;;;;;26.71;43.85;100807.59;5090984;28;1227;-65
2021/07/27 09:38:02;;;;;;;;;;;;;;;26.71;43.51;100807.59;5091314;28;809;-65
2021/07/27 09:40:29;;;;;;;;;;;;;;;26.72;43.59;100806.63;5090909;28;1293;-65
2021/07/27 09:42:56;;;;;;;;;;;;;;;26.74;43.62;100809.97;5090943;28;1436;-65
2021/07/27 09:45:24;;;;;;;;;;;;;;;26.76;43.52;100800.00;5072186;28;1890;-65
2021/07/27 09:47:53;;;;;;;;;;;;;;;26.79;43.34;100805.06;5090767;28;754;-65
2021/07/27 09:50:24;;;;;;;;;;;;;;;26.80;42.80;100815.66;5090665;28;1243;-64
2021/07/27 09:52:51;;;;;;;;;;;;;;;26.81;43.69;100811.97;5072809;28;1047;-64
2021/07/27 09:55:20;;;;;;;;;;;;;;;26.82;43.20;100810.16;5090671;28;1302;-64
2021/07/27 09:57:47;;;;;;;;;;;;;;;26.82;43.98;100802.16;5090618;28;1075;-65
2021/07/27 10:00:15;;;;;;;;;;;;;;;26.82;44.14;100805.66;5072028;28;1269;-65
2021/07/27 10:02:43;;;;;;;;;;;;;;;26.79;43.93;100799.72;5090409;28;1123;-66
2021/07/27 10:05:11;;;;;;;;;;;;;;;26.77;43.73;100801.69;5090157;28;1909;-65
2021/07/27 10:07:50;;;;;;;;;;;;;;;26.80;44.03;100802.31;5090271;28;731;-65
2021/07/27 10:10:17;;;;;;;;;;;;;;;26.79;43.53;100802.38;5072068;28;1299;-65
2021/07/27 10:12:44;;;;;;;;;;;;;;;26.79;43.38;100803.25;5090146;28;1250;-66
2021/07/27 10:15:16;;;;;;;;;;;;;;;26.81;43.63;100797.81;5089515;28;1248;-66
2021/07/27 10:17:52;;;;;;;;;;;;;;;26.80;43.53;100801.44;5089885;28;960;-65
2021/07/27 10:20:26;;;;;;;;;;;;;;;26.84;43.87;100793.00;5089687;28;1345;-65
2021/07/27 10:22:56;;;;;;;;;;;;;;;26.88;43.89;100790.91;5089206;28;1034;-66
2021/07/27 10:25:24;;;;;;;;;;;;;;;26.85;43.62;100792.03;5089670;28;1971;-66
2021/07/27 10:27:52;;;;;;;;;;;;;;;26.85;43.42;100792.03;5089623;28;1101;-67
2021/07/27 10:30:32;;;;;;;;;;;;;;;26.89;43.36;100797.94;5071146;28;1248;-67
2021/07/27 10:32:59;;;;;;;;;;;;;;;26.89;43.60;100781.91;5071638;28;1159;-67
2021/07/27 10:35:30;;;;;;;;;;;;;;;26.93;43.30;100788.69;5089366;28;1306;-68
2021/07/27 10:38:06;;;;;;;;;;;;;;;26.95;42.83;100776.00;5089847;28;1028;-68
2021/07/27 10:40:38;;;;;;;;;;;;;;;26.88;43.27;100777.53;5089611;28;1224;-67
2021/07/27 10:43:07;;;;;;;;;;;;;;;26.97;42.69;100782.06;5071638;28;1595;-68
2021/07/27 10:45:34;;;;;;;;;;;;;;;26.93;43.02;100775.31;5070924;28;1967;-68
2021/07/27 10:48:01;;;;;;;;;;;;;;;26.89;44.10;100777.41;5089617;28;1059;-68
2021/07/27 10:50:29;;;;;;;;;;;;;;;26.94;43.82;100780.50;5089362;28;1268;-68
2021/07/27 10:53:02;;;;;;;;;;;;;;;26.89;43.45;100774.75;5089743;28;814;-68
2021/07/27 10:55:31;;;;;;;;;;;;;;;26.92;43.88;100774.47;5088729;28;1871;-68
2021/07/27 10:58:00;;;;;;;;;;;;;;;26.95;43.64;100762.63;5089750;28;838;-68
2021/07/27 11:00:33;;;;;;;;;;;;;;;26.96;43.45;100769.69;5089331;28;1221;-68
2021/07/27 11:03:00;;;;;;;;;;;;;;;26.99;43.59;100772.09;5089227;28;1103;-68
2021/07/27 11:05:28;;;;;;;;;;;;;;;27.00;43.51;100771.94;5089351;28;1995;-68
2021/07/27 11:07:55;;;;;;;;;;;;;;;26.93;43.69;100767.28;5088174;28;941;-67
2021/07/27 11:10:23;;;;;;;;;;;;;;;26.96;43.64;100778.53;5089137;28;1224;-67
2021/07/27 11:12:50;;;;;;;;;;;;;;;27.05;43.52;100769.66;5070614;28;1475;-68
2021/07/27 11:15:19;;;;;;;;;;;;;;;27.03;43.34;100768.97;5089302;28;1302;-67
2021/07/27 11:18:02;;;;;;;;;;;;;;;27.04;43.25;100770.66;5088833;28;1009;-67
2021/07/27 11:20:38;;;;;;;;;;;;;;;27.05;43.26;100772.34;5070840;28;1279;-67
2021/07/27 11:23:16;;;;;;;;;;;;;;;27.06;42.72;100766.00;5089402;28;1120;-67
2021/07/27 11:25:51;;;;;;;;;;;;;;;27.02;43.09;100769.94;5088982;28;1998;-69
2021/07/27 11:28:19;;;;;;;;;;;;;;;27.02;42.86;100767.28;5070734;28;1075;-67
2021/07/27 11:30:46;;;;;;;;;;;;;;;27.09;43.05;100768.41;5088849;28;1258;-68
2021/07/27 11:33:14;;;;;;;;;;;;;;;27.11;43.25;100771.78;5070273;28;1092;-67
2021/07/27 11:35:51;;;;;;;;;;;;;;;27.12;43.91;100767.28;5088990;28;1334;-68
2021/07/27 11:38:21;;;;;;;;;;;;;;;27.12;43.44;100765.47;5088283;28;784;-66
2021/07/27 11:40:49;;;;;;;;;;;;;;;27.11;42.95;100768.28;5069952;28;1456;-67
2021/07/27 11:43:17;;;;;;;;;;;;;;;27.10;44.22;100766.59;5088227;28;1385;-67
2021/07/27 11:45:45;;;;;;;;;;;;;;;27.13;43.67;100756.47;5087946;28;1987;-67
2021/07/27 11:48:12;;;;;;;;;;;;;;;27.14;43.00;100757.31;5088367;28;951;-68
2021/07/27 11:50:41;;;;;;;;;;;;;;;27.16;42.73;100752.66;5070113;28;1334;-67
2021/07/27 11:53:08;;;;;;;;;;;;;;;27.15;43.63;100754.47;5088777;28;1035;-67
2021/07/27 11:55:39;;;;;;;;;;;;;;;27.13;43.12;100760.97;5088805;28;1210;-68
2021/07/27 11:58:07;;;;;;;;;;;;;;;27.16;43.66;100755.31;5088759;28;1079;-67
2021/07/27 12:00:35;;;;;;;;;;;;;;;27.17;43.43;100753.50;5070167;28;1204;-66
2021/07/27 12:03:06;;;;;;;;;;;;;;;27.14;43.07;100747.47;5069886;28;1130;-66
2021/07/27 12:05:33;;;;;;;;;;;;;;;27.16;43.31;100758.00;5088194;28;1901;-67
2021/07/27 12:08:03;;;;;;;;;;;;;;;27.16;43.19;100749.97;5088472;28;923;-66
2021/07/27 12:10:29;;;;;;;;;;;;;;;27.17;43.55;100746.34;5069924;28;1551;-67
2021/07/27 12:12:56;;;;;;;;;;;;;;;27.20;43.66;100746.03;5069894;28;1187;-68
2021/07/27 12:15:23;;;;;;;;;;;;;;;27.17;43.98;100746.34;5087972;28;1228;-67
2021/07/27 12:17:50;;;;;;;;;;;;;;;27.19;44.21;100744.34;5087360;28;796;-67
2021/07/27 12:20:16;;;;;;;;;;;;;;;27.21;44.19;100745.03;5087510;28;1317;-68
2021/07/27 12:22:43;;;;;;;;;;;;;;;27.20;44.58;100737.19;5088390;28;798;-67
2021/07/27 12:25:10;;;;;;;;;;;;;;;27.22;44.44;100744.06;5052738;28;1346;-66
2021/07/27 12:27:38;;;;;;;;;;;;;;;27.20;44.53;100740.69;5069870;28;1983;-67
2021/07/27 12:30:05;;;;;;;;;;;;;;;27.22;44.33;100733.38;5069488;28;1507;-66
2021/07/27 12:32:32;;;;;;;;;;;;;;;27.25;44.36;100727.72;5069971;28;897;-67
2021/07/27 12:35:07;;;;;;;;;;;;;;;27.25;44.52;100729.56;5087912;28;1373;-67
2021/07/27 12:37:37;;;;;;;;;;;;;;;27.24;44.63;100734.06;5088157;28;1034;-67
2021/07/27 12:40:04;;;;;;;;;;;;;;;27.24;44.77;100725.22;5069542;28;1219;-67
2021/07/27 12:42:31;;;;;;;;;;;;;;;27.23;44.96;100719.03;5069243;28;1167;-67
2021/07/27 12:44:58;;;;;;;;;;;;;;;27.23;45.12;100724.38;5087713;28;1243;-68
2021/07/27 12:47:24;;;;;;;;;;;;;;;27.34;44.88;100724.19;5091943;28;1910;-69
2021/07/27 12:49:56;;;;;;;;;;;;;;;27.39;45.22;100731.81;5073049;28;1295;-71
2021/07/27 12:52:23;;;;;;;;;;;;;;;27.30;45.09;100720.13;5091836;28;1029;-69
2021/07/27 12:54:50;;;;;;;;;;;;;;;27.27;45.45;100725.75;5091860;28;1303;-65
2021/07/27 12:57:17;;;;;;;;;;;;;;;27.31;45.46;100721.81;5091996;28;1059;-63
2021/07/27 12:59:45;;;;;;;;;;;;;;;27.17;45.14;100724.94;5088312;28;1287;-64
2021/07/27 13:02:12;;;;;;;;;;;;;;;26.94;44.30;100719.03;5091463;28;938;-70
2021/07/27 13:04:40;;;;;;;;;;;;;;;26.78;44.47;100709.88;5074744;28;1327;-64
2021/07/27 13:07:07;;;;;;;;;;;;;;;26.70;43.64;100710.53;5081169;28;1977;-66
2021/07/27 13:09:35;;;;;;;;;;;;;;;26.60;43.35;100715.03;5089377;28;1369;-66
2021/07/27 13:12:02;;;;;;;;;;;;;;;26.53;42.98;100706.75;5090193;28;1173;-66